sensor_id;sensor_type;location;lat;lon;timestamp;P1;durP1;ratioP1;P2;durP2;ratioP2
37973;SDS011;23796;51.458;7.000;2023-04-09T00:02:10;22.35;;;19.00;;
37973;SDS011;23796;51.458;7.000;2023-04-09T00:04:38;23.60;;;18.75;;
37973;SDS011;23796;51.458;7.000;2023-04-09T00:07:06;23.13;;;18.98;;
37973;SDS011;23796;51.458;7.000;2023-04-09T00:09:32;22.50;;;18.80;;
37973;SDS011;23796;51.458;7.000;2023-04-09T00:11:58;22.75;;;19.92;;
37973;SDS011;23796;51.458;7.000;2023-04-09T00:14:23;20.10;;;17.77;;
37973;SDS011;23796;51.458;7.000;2023-04-09T00:16:51;21.70;;;18.27;;
37973;SDS011;23796;51.458;7.000;2023-04-09T00:19:17;23.10;;;19.77;;
37973;SDS011;23796;51.458;7.000;2023-04-09T00:21:45;21.77;;;18.52;;
37973;SDS011;23796;51.458;7.000;2023-04-09T00:24:12;22.48;;;19.55;;
37973;SDS011;23796;51.458;7.000;2023-04-09T00:26:37;23.73;;;19.33;;
37973;SDS011;23796;51.458;7.000;2023-04-09T00:29:05;21.55;;;18.77;;
37973;SDS011;23796;51.458;7.000;2023-04-09T00:31:31;21.30;;;18.27;;
37973;SDS011;23796;51.458;7.000;2023-04-09T00:33:57;22.77;;;18.98;;
37973;SDS011;23796;51.458;7.000;2023-04-09T00:36:22;21.08;;;18.52;;
37973;SDS011;23796;51.458;7.000;2023-04-09T00:38:51;21.55;;;18.17;;
37973;SDS011;23796;51.458;7.000;2023-04-09T00:41:19;24.40;;;19.98;;
37973;SDS011;23796;51.458;7.000;2023-04-09T00:43:45;22.83;;;19.50;;
37973;SDS011;23796;51.458;7.000;2023-04-09T00:46:10;25.88;;;19.13;;
37973;SDS011;23796;51.458;7.000;2023-04-09T00:48:36;22.70;;;19.25;;
37973;SDS011;23796;51.458;7.000;2023-04-09T00:51:02;22.20;;;18.70;;
37973;SDS011;23796;51.458;7.000;2023-04-09T00:53:27;24.92;;;19.52;;
37973;SDS011;23796;51.458;7.000;2023-04-09T00:55:55;22.67;;;18.92;;
37973;SDS011;23796;51.458;7.000;2023-04-09T00:58:21;21.98;;;18.67;;
37973;SDS011;23796;51.458;7.000;2023-04-09T01:00:47;24.33;;;19.95;;
37973;SDS011;23796;51.458;7.000;2023-04-09T01:03:13;21.92;;;19.17;;
37973;SDS011;23796;51.458;7.000;2023-04-09T01:05:43;24.58;;;19.83;;
37973;SDS011;23796;51.458;7.000;2023-04-09T01:11:09;22.90;;;18.42;;
37973;SDS011;23796;51.458;7.000;2023-04-09T01:16:51;23.58;;;19.42;;
37973;SDS011;23796;51.458;7.000;2023-04-09T01:22:28;22.65;;;19.17;;
37973;SDS011;23796;51.458;7.000;2023-04-09T01:30:49;23.33;;;18.77;;
37973;SDS011;23796;51.458;7.000;2023-04-09T01:33:21;23.40;;;18.55;;
37973;SDS011;23796;51.458;7.000;2023-04-09T01:35:48;25.63;;;20.02;;
37973;SDS011;23796;51.458;7.000;2023-04-09T01:38:17;25.15;;;19.42;;
37973;SDS011;23796;51.458;7.000;2023-04-09T01:40:44;21.75;;;19.10;;
37973;SDS011;23796;51.458;7.000;2023-04-09T01:43:10;22.25;;;18.92;;
37973;SDS011;23796;51.458;7.000;2023-04-09T01:45:39;23.13;;;19.85;;
37973;SDS011;23796;51.458;7.000;2023-04-09T01:48:06;23.63;;;20.25;;
37973;SDS011;23796;51.458;7.000;2023-04-09T01:50:33;25.00;;;21.08;;
37973;SDS011;23796;51.458;7.000;2023-04-09T01:52:59;24.30;;;19.90;;
37973;SDS011;23796;51.458;7.000;2023-04-09T01:55:26;24.02;;;19.85;;
37973;SDS011;23796;51.458;7.000;2023-04-09T01:57:54;24.23;;;18.58;;
37973;SDS011;23796;51.458;7.000;2023-04-09T02:00:19;25.98;;;20.45;;
37973;SDS011;23796;51.458;7.000;2023-04-09T02:02:47;26.65;;;19.73;;
37973;SDS011;23796;51.458;7.000;2023-04-09T02:05:27;24.98;;;20.02;;
37973;SDS011;23796;51.458;7.000;2023-04-09T02:07:59;23.70;;;19.17;;
37973;SDS011;23796;51.458;7.000;2023-04-09T02:10:29;23.00;;;19.58;;
37973;SDS011;23796;51.458;7.000;2023-04-09T02:12:58;22.33;;;19.17;;
37973;SDS011;23796;51.458;7.000;2023-04-09T02:15:25;24.88;;;21.15;;
37973;SDS011;23796;51.458;7.000;2023-04-09T02:17:54;25.88;;;20.55;;
37973;SDS011;23796;51.458;7.000;2023-04-09T02:20:27;25.83;;;19.52;;
37973;SDS011;23796;51.458;7.000;2023-04-09T02:22:53;24.75;;;19.80;;
37973;SDS011;23796;51.458;7.000;2023-04-09T02:25:18;24.48;;;19.67;;
37973;SDS011;23796;51.458;7.000;2023-04-09T02:27:45;24.30;;;19.92;;
37973;SDS011;23796;51.458;7.000;2023-04-09T02:30:12;28.27;;;23.75;;
37973;SDS011;23796;51.458;7.000;2023-04-09T02:32:38;30.88;;;26.42;;
37973;SDS011;23796;51.458;7.000;2023-04-09T02:35:06;30.40;;;25.38;;
37973;SDS011;23796;51.458;7.000;2023-04-09T02:37:31;30.58;;;25.48;;
37973;SDS011;23796;51.458;7.000;2023-04-09T02:39:59;32.58;;;29.02;;
37973;SDS011;23796;51.458;7.000;2023-04-09T02:42:27;37.03;;;30.27;;
37973;SDS011;23796;51.458;7.000;2023-04-09T02:44:53;41.42;;;31.77;;
37973;SDS011;23796;51.458;7.000;2023-04-09T02:47:19;37.80;;;29.92;;
37973;SDS011;23796;51.458;7.000;2023-04-09T02:49:44;34.70;;;29.15;;
37973;SDS011;23796;51.458;7.000;2023-04-09T02:52:10;36.10;;;29.42;;
37973;SDS011;23796;51.458;7.000;2023-04-09T02:54:38;32.67;;;28.88;;
37973;SDS011;23796;51.458;7.000;2023-04-09T02:57:03;36.08;;;30.15;;
37973;SDS011;23796;51.458;7.000;2023-04-09T02:59:29;32.45;;;27.75;;
37973;SDS011;23796;51.458;7.000;2023-04-09T03:01:56;34.10;;;27.95;;
37973;SDS011;23796;51.458;7.000;2023-04-09T03:04:27;32.92;;;27.20;;
37973;SDS011;23796;51.458;7.000;2023-04-09T03:06:52;31.98;;;26.70;;
37973;SDS011;23796;51.458;7.000;2023-04-09T03:09:20;32.85;;;26.63;;
37973;SDS011;23796;51.458;7.000;2023-04-09T03:11:51;32.88;;;24.98;;
37973;SDS011;23796;51.458;7.000;2023-04-09T03:14:23;28.55;;;23.75;;
37973;SDS011;23796;51.458;7.000;2023-04-09T03:16:49;30.25;;;24.67;;
37973;SDS011;23796;51.458;7.000;2023-04-09T03:19:14;29.50;;;24.35;;
37973;SDS011;23796;51.458;7.000;2023-04-09T03:21:40;29.83;;;26.10;;
37973;SDS011;23796;51.458;7.000;2023-04-09T03:24:06;30.73;;;24.77;;
37973;SDS011;23796;51.458;7.000;2023-04-09T03:26:32;28.35;;;22.20;;
37973;SDS011;23796;51.458;7.000;2023-04-09T03:29:06;27.35;;;23.42;;
37973;SDS011;23796;51.458;7.000;2023-04-09T03:31:31;27.35;;;22.67;;
37973;SDS011;23796;51.458;7.000;2023-04-09T03:33:59;27.45;;;24.10;;
37973;SDS011;23796;51.458;7.000;2023-04-09T03:36:27;30.75;;;24.67;;
37973;SDS011;23796;51.458;7.000;2023-04-09T03:38:53;28.40;;;23.25;;
37973;SDS011;23796;51.458;7.000;2023-04-09T03:41:18;27.52;;;23.20;;
37973;SDS011;23796;51.458;7.000;2023-04-09T03:43:46;28.27;;;23.33;;
37973;SDS011;23796;51.458;7.000;2023-04-09T03:46:12;27.95;;;23.67;;
37973;SDS011;23796;51.458;7.000;2023-04-09T03:48:41;28.58;;;22.85;;
37973;SDS011;23796;51.458;7.000;2023-04-09T03:51:10;28.73;;;23.00;;
37973;SDS011;23796;51.458;7.000;2023-04-09T03:53:37;26.35;;;22.70;;
37973;SDS011;23796;51.458;7.000;2023-04-09T03:56:03;31.38;;;22.85;;
37973;SDS011;23796;51.458;7.000;2023-04-09T03:58:34;26.40;;;23.48;;
37973;SDS011;23796;51.458;7.000;2023-04-09T04:01:00;29.67;;;24.67;;
37973;SDS011;23796;51.458;7.000;2023-04-09T04:03:28;28.38;;;24.02;;
37973;SDS011;23796;51.458;7.000;2023-04-09T04:05:58;28.83;;;23.45;;
37973;SDS011;23796;51.458;7.000;2023-04-09T04:08:27;29.02;;;24.33;;
37973;SDS011;23796;51.458;7.000;2023-04-09T04:10:53;28.92;;;24.08;;
37973;SDS011;23796;51.458;7.000;2023-04-09T04:13:21;30.10;;;25.13;;
37973;SDS011;23796;51.458;7.000;2023-04-09T04:15:49;33.47;;;25.98;;
37973;SDS011;23796;51.458;7.000;2023-04-09T04:18:14;32.00;;;25.80;;
37973;SDS011;23796;51.458;7.000;2023-04-09T04:20:40;28.73;;;24.70;;
37973;SDS011;23796;51.458;7.000;2023-04-09T04:23:06;33.67;;;26.20;;
37973;SDS011;23796;51.458;7.000;2023-04-09T04:25:31;29.83;;;24.38;;
37973;SDS011;23796;51.458;7.000;2023-04-09T04:27:57;31.80;;;25.00;;
37973;SDS011;23796;51.458;7.000;2023-04-09T04:30:23;28.98;;;24.23;;
37973;SDS011;23796;51.458;7.000;2023-04-09T04:32:50;27.83;;;23.65;;
37973;SDS011;23796;51.458;7.000;2023-04-09T04:35:16;29.58;;;22.52;;
37973;SDS011;23796;51.458;7.000;2023-04-09T04:37:45;27.88;;;23.08;;
37973;SDS011;23796;51.458;7.000;2023-04-09T04:40:14;27.55;;;22.30;;
37973;SDS011;23796;51.458;7.000;2023-04-09T04:42:40;28.08;;;21.98;;
37973;SDS011;23796;51.458;7.000;2023-04-09T04:45:08;26.70;;;22.10;;
37973;SDS011;23796;51.458;7.000;2023-04-09T04:47:36;26.88;;;22.27;;
37973;SDS011;23796;51.458;7.000;2023-04-09T04:50:05;28.08;;;21.08;;
37973;SDS011;23796;51.458;7.000;2023-04-09T04:52:33;25.77;;;21.25;;
37973;SDS011;23796;51.458;7.000;2023-04-09T04:55:00;26.85;;;21.70;;
37973;SDS011;23796;51.458;7.000;2023-04-09T04:57:25;24.05;;;20.33;;
37973;SDS011;23796;51.458;7.000;2023-04-09T04:59:51;26.00;;;21.38;;
37973;SDS011;23796;51.458;7.000;2023-04-09T05:02:19;24.88;;;19.52;;
37973;SDS011;23796;51.458;7.000;2023-04-09T05:04:44;25.17;;;20.77;;
37973;SDS011;23796;51.458;7.000;2023-04-09T05:07:10;23.58;;;20.08;;
37973;SDS011;23796;51.458;7.000;2023-04-09T05:09:38;26.13;;;19.25;;
37973;SDS011;23796;51.458;7.000;2023-04-09T05:12:03;23.98;;;19.13;;
37973;SDS011;23796;51.458;7.000;2023-04-09T05:14:29;21.02;;;18.67;;
37973;SDS011;23796;51.458;7.000;2023-04-09T05:16:57;24.10;;;19.58;;
37973;SDS011;23796;51.458;7.000;2023-04-09T05:19:23;21.67;;;18.27;;
37973;SDS011;23796;51.458;7.000;2023-04-09T05:21:48;22.70;;;18.20;;
37973;SDS011;23796;51.458;7.000;2023-04-09T05:24:14;20.10;;;17.88;;
37973;SDS011;23796;51.458;7.000;2023-04-09T05:26:42;20.63;;;17.90;;
37973;SDS011;23796;51.458;7.000;2023-04-09T05:29:07;22.98;;;19.52;;
37973;SDS011;23796;51.458;7.000;2023-04-09T05:31:35;23.73;;;18.90;;
37973;SDS011;23796;51.458;7.000;2023-04-09T05:34:01;20.30;;;17.83;;
37973;SDS011;23796;51.458;7.000;2023-04-09T05:36:26;20.48;;;17.98;;
37973;SDS011;23796;51.458;7.000;2023-04-09T05:38:56;19.95;;;17.77;;
37973;SDS011;23796;51.458;7.000;2023-04-09T05:41:24;19.65;;;16.42;;
37973;SDS011;23796;51.458;7.000;2023-04-09T05:43:52;19.15;;;16.73;;
37973;SDS011;23796;51.458;7.000;2023-04-09T05:46:20;18.23;;;16.23;;
37973;SDS011;23796;51.458;7.000;2023-04-09T05:48:46;18.35;;;15.90;;
37973;SDS011;23796;51.458;7.000;2023-04-09T05:51:11;19.02;;;16.80;;
37973;SDS011;23796;51.458;7.000;2023-04-09T05:53:39;19.45;;;16.05;;
37973;SDS011;23796;51.458;7.000;2023-04-09T05:56:11;16.95;;;15.10;;
37973;SDS011;23796;51.458;7.000;2023-04-09T05:58:41;18.70;;;16.02;;
37973;SDS011;23796;51.458;7.000;2023-04-09T06:01:09;19.25;;;15.85;;
37973;SDS011;23796;51.458;7.000;2023-04-09T06:03:35;18.60;;;15.95;;
37973;SDS011;23796;51.458;7.000;2023-04-09T06:06:03;18.80;;;16.20;;
37973;SDS011;23796;51.458;7.000;2023-04-09T06:08:29;20.08;;;15.15;;
37973;SDS011;23796;51.458;7.000;2023-04-09T06:10:54;16.70;;;14.43;;
37973;SDS011;23796;51.458;7.000;2023-04-09T06:13:20;16.75;;;14.95;;
37973;SDS011;23796;51.458;7.000;2023-04-09T06:15:48;18.42;;;15.70;;
37973;SDS011;23796;51.458;7.000;2023-04-09T06:18:16;17.38;;;15.25;;
37973;SDS011;23796;51.458;7.000;2023-04-09T06:20:42;16.55;;;14.75;;
37973;SDS011;23796;51.458;7.000;2023-04-09T06:23:10;16.90;;;14.77;;
37973;SDS011;23796;51.458;7.000;2023-04-09T06:25:40;17.20;;;14.73;;
37973;SDS011;23796;51.458;7.000;2023-04-09T06:28:05;18.40;;;14.95;;
37973;SDS011;23796;51.458;7.000;2023-04-09T06:30:31;17.50;;;14.45;;
37973;SDS011;23796;51.458;7.000;2023-04-09T06:32:57;17.20;;;14.88;;
37973;SDS011;23796;51.458;7.000;2023-04-09T06:35:25;17.65;;;14.63;;
37973;SDS011;23796;51.458;7.000;2023-04-09T06:37:50;16.23;;;14.43;;
37973;SDS011;23796;51.458;7.000;2023-04-09T06:40:16;16.98;;;14.13;;
37973;SDS011;23796;51.458;7.000;2023-04-09T06:42:44;15.55;;;13.30;;
37973;SDS011;23796;51.458;7.000;2023-04-09T06:45:10;15.07;;;13.07;;
37973;SDS011;23796;51.458;7.000;2023-04-09T06:47:36;15.45;;;13.77;;
37973;SDS011;23796;51.458;7.000;2023-04-09T06:50:01;16.42;;;13.63;;
37973;SDS011;23796;51.458;7.000;2023-04-09T06:52:27;16.35;;;14.45;;
37973;SDS011;23796;51.458;7.000;2023-04-09T06:54:53;16.05;;;14.35;;
37973;SDS011;23796;51.458;7.000;2023-04-09T06:57:18;14.30;;;12.80;;
37973;SDS011;23796;51.458;7.000;2023-04-09T06:59:44;17.27;;;13.27;;
37973;SDS011;23796;51.458;7.000;2023-04-09T07:02:09;15.00;;;13.10;;
37973;SDS011;23796;51.458;7.000;2023-04-09T07:04:37;14.80;;;13.30;;
37973;SDS011;23796;51.458;7.000;2023-04-09T07:07:05;17.25;;;12.77;;
37973;SDS011;23796;51.458;7.000;2023-04-09T07:09:31;16.08;;;13.15;;
37973;SDS011;23796;51.458;7.000;2023-04-09T07:11:57;15.32;;;13.43;;
37973;SDS011;23796;51.458;7.000;2023-04-09T07:14:23;14.55;;;12.88;;
37973;SDS011;23796;51.458;7.000;2023-04-09T07:16:48;15.60;;;12.93;;
37973;SDS011;23796;51.458;7.000;2023-04-09T07:19:14;15.48;;;13.20;;
37973;SDS011;23796;51.458;7.000;2023-04-09T07:21:40;16.05;;;13.68;;
37973;SDS011;23796;51.458;7.000;2023-04-09T07:24:05;15.98;;;13.57;;
37973;SDS011;23796;51.458;7.000;2023-04-09T07:26:31;15.55;;;12.82;;
37973;SDS011;23796;51.458;7.000;2023-04-09T07:28:57;15.98;;;13.00;;
37973;SDS011;23796;51.458;7.000;2023-04-09T07:31:27;13.30;;;11.90;;
37973;SDS011;23796;51.458;7.000;2023-04-09T07:33:55;14.80;;;11.82;;
37973;SDS011;23796;51.458;7.000;2023-04-09T07:36:21;11.63;;;9.95;;
37973;SDS011;23796;51.458;7.000;2023-04-09T07:38:49;13.48;;;10.75;;
37973;SDS011;23796;51.458;7.000;2023-04-09T07:41:15;12.32;;;10.48;;
37973;SDS011;23796;51.458;7.000;2023-04-09T07:43:41;12.60;;;10.98;;
37973;SDS011;23796;51.458;7.000;2023-04-09T07:46:07;12.85;;;10.55;;
37973;SDS011;23796;51.458;7.000;2023-04-09T07:48:32;13.05;;;11.05;;
37973;SDS011;23796;51.458;7.000;2023-04-09T07:50:58;13.18;;;10.15;;
37973;SDS011;23796;51.458;7.000;2023-04-09T07:53:23;13.57;;;11.00;;
37973;SDS011;23796;51.458;7.000;2023-04-09T07:55:49;12.38;;;10.73;;
37973;SDS011;23796;51.458;7.000;2023-04-09T07:58:15;11.00;;;9.70;;
37973;SDS011;23796;51.458;7.000;2023-04-09T08:00:41;13.98;;;10.52;;
37973;SDS011;23796;51.458;7.000;2023-04-09T08:03:07;13.07;;;10.70;;
37973;SDS011;23796;51.458;7.000;2023-04-09T08:05:33;12.93;;;10.60;;
37973;SDS011;23796;51.458;7.000;2023-04-09T08:08:00;12.82;;;10.25;;
37973;SDS011;23796;51.458;7.000;2023-04-09T08:10:25;11.50;;;9.45;;
37973;SDS011;23796;51.458;7.000;2023-04-09T08:12:51;11.07;;;9.60;;
37973;SDS011;23796;51.458;7.000;2023-04-09T08:15:16;10.38;;;9.25;;
37973;SDS011;23796;51.458;7.000;2023-04-09T08:17:42;11.57;;;9.73;;
37973;SDS011;23796;51.458;7.000;2023-04-09T08:20:08;12.25;;;9.70;;
37973;SDS011;23796;51.458;7.000;2023-04-09T08:22:34;10.10;;;8.73;;
37973;SDS011;23796;51.458;7.000;2023-04-09T08:25:00;11.23;;;9.15;;
37973;SDS011;23796;51.458;7.000;2023-04-09T08:27:26;11.02;;;9.35;;
37973;SDS011;23796;51.458;7.000;2023-04-09T08:29:51;10.32;;;8.15;;
37973;SDS011;23796;51.458;7.000;2023-04-09T08:32:17;10.20;;;8.63;;
37973;SDS011;23796;51.458;7.000;2023-04-09T08:34:43;10.30;;;8.45;;
37973;SDS011;23796;51.458;7.000;2023-04-09T08:37:08;10.30;;;8.05;;
37973;SDS011;23796;51.458;7.000;2023-04-09T08:39:34;10.85;;;8.98;;
37973;SDS011;23796;51.458;7.000;2023-04-09T08:42:00;10.77;;;8.63;;
37973;SDS011;23796;51.458;7.000;2023-04-09T08:44:31;9.52;;;7.40;;
37973;SDS011;23796;51.458;7.000;2023-04-09T08:46:56;9.40;;;7.68;;
37973;SDS011;23796;51.458;7.000;2023-04-09T08:49:24;8.27;;;7.03;;
37973;SDS011;23796;51.458;7.000;2023-04-09T08:51:49;9.73;;;7.93;;
37973;SDS011;23796;51.458;7.000;2023-04-09T08:54:15;8.68;;;6.75;;
37973;SDS011;23796;51.458;7.000;2023-04-09T08:56:44;7.57;;;6.25;;
37973;SDS011;23796;51.458;7.000;2023-04-09T08:59:16;7.30;;;6.07;;
37973;SDS011;23796;51.458;7.000;2023-04-09T09:01:44;8.48;;;6.85;;
37973;SDS011;23796;51.458;7.000;2023-04-09T09:04:18;8.25;;;6.35;;
37973;SDS011;23796;51.458;7.000;2023-04-09T09:06:48;6.93;;;5.63;;
37973;SDS011;23796;51.458;7.000;2023-04-09T09:09:14;6.95;;;5.28;;
37973;SDS011;23796;51.458;7.000;2023-04-09T09:11:43;6.78;;;5.20;;
37973;SDS011;23796;51.458;7.000;2023-04-09T09:14:13;6.75;;;5.20;;
37973;SDS011;23796;51.458;7.000;2023-04-09T09:17:04;6.85;;;5.43;;
37973;SDS011;23796;51.458;7.000;2023-04-09T09:19:30;6.47;;;5.15;;
37973;SDS011;23796;51.458;7.000;2023-04-09T09:22:00;8.05;;;5.90;;
37973;SDS011;23796;51.458;7.000;2023-04-09T09:24:30;8.32;;;6.32;;
37973;SDS011;23796;51.458;7.000;2023-04-09T09:26:57;7.32;;;5.43;;
37973;SDS011;23796;51.458;7.000;2023-04-09T09:29:24;6.75;;;5.70;;
37973;SDS011;23796;51.458;7.000;2023-04-09T09:31:54;5.47;;;4.45;;
37973;SDS011;23796;51.458;7.000;2023-04-09T09:34:21;6.57;;;5.13;;
37973;SDS011;23796;51.458;7.000;2023-04-09T09:36:48;6.03;;;4.47;;
37973;SDS011;23796;51.458;7.000;2023-04-09T09:39:14;5.97;;;4.30;;
37973;SDS011;23796;51.458;7.000;2023-04-09T09:41:43;7.43;;;5.20;;
37973;SDS011;23796;51.458;7.000;2023-04-09T09:44:11;6.10;;;4.95;;
37973;SDS011;23796;51.458;7.000;2023-04-09T09:46:53;6.68;;;5.15;;
37973;SDS011;23796;51.458;7.000;2023-04-09T09:49:20;5.45;;;4.38;;
37973;SDS011;23796;51.458;7.000;2023-04-09T09:51:45;6.43;;;4.65;;
37973;SDS011;23796;51.458;7.000;2023-04-09T09:54:11;6.57;;;4.18;;
37973;SDS011;23796;51.458;7.000;2023-04-09T09:56:39;5.10;;;3.85;;
37973;SDS011;23796;51.458;7.000;2023-04-09T09:59:20;5.10;;;3.88;;
37973;SDS011;23796;51.458;7.000;2023-04-09T10:01:50;5.90;;;4.07;;
37973;SDS011;23796;51.458;7.000;2023-04-09T10:04:25;5.05;;;3.60;;
37973;SDS011;23796;51.458;7.000;2023-04-09T10:06:53;5.65;;;4.10;;
37973;SDS011;23796;51.458;7.000;2023-04-09T10:09:23;5.85;;;4.20;;
37973;SDS011;23796;51.458;7.000;2023-04-09T10:11:51;5.53;;;4.10;;
37973;SDS011;23796;51.458;7.000;2023-04-09T10:14:19;5.80;;;4.47;;
37973;SDS011;23796;51.458;7.000;2023-04-09T10:16:46;5.40;;;4.15;;
37973;SDS011;23796;51.458;7.000;2023-04-09T10:19:12;6.38;;;4.88;;
37973;SDS011;23796;51.458;7.000;2023-04-09T10:21:41;5.47;;;4.20;;
37973;SDS011;23796;51.458;7.000;2023-04-09T10:24:11;5.68;;;4.00;;
37973;SDS011;23796;51.458;7.000;2023-04-09T10:26:41;5.35;;;4.38;;
37973;SDS011;23796;51.458;7.000;2023-04-09T10:29:13;6.00;;;4.63;;
37973;SDS011;23796;51.458;7.000;2023-04-09T10:34:22;5.32;;;4.15;;
37973;SDS011;23796;51.458;7.000;2023-04-09T10:36:54;4.95;;;4.00;;
37973;SDS011;23796;51.458;7.000;2023-04-09T10:39:25;5.57;;;3.92;;
37973;SDS011;23796;51.458;7.000;2023-04-09T10:41:52;5.70;;;4.50;;
37973;SDS011;23796;51.458;7.000;2023-04-09T10:44:22;6.10;;;4.93;;
37973;SDS011;23796;51.458;7.000;2023-04-09T10:46:54;5.40;;;4.40;;
37973;SDS011;23796;51.458;7.000;2023-04-09T10:52:07;4.95;;;4.13;;
37973;SDS011;23796;51.458;7.000;2023-04-09T10:59:53;6.53;;;4.97;;
37973;SDS011;23796;51.458;7.000;2023-04-09T11:07:24;5.50;;;4.53;;
37973;SDS011;23796;51.458;7.000;2023-04-09T11:09:52;5.22;;;4.40;;
37973;SDS011;23796;51.458;7.000;2023-04-09T11:12:17;4.82;;;3.97;;
37973;SDS011;23796;51.458;7.000;2023-04-09T11:14:43;8.73;;;6.03;;
37973;SDS011;23796;51.458;7.000;2023-04-09T11:17:11;5.82;;;4.20;;
37973;SDS011;23796;51.458;7.000;2023-04-09T11:19:39;5.53;;;4.07;;
37973;SDS011;23796;51.458;7.000;2023-04-09T11:22:08;5.28;;;4.05;;
37973;SDS011;23796;51.458;7.000;2023-04-09T11:24:41;5.80;;;5.20;;
37973;SDS011;23796;51.458;7.000;2023-04-09T11:27:09;5.90;;;4.68;;
37973;SDS011;23796;51.458;7.000;2023-04-09T11:29:35;7.45;;;4.82;;
37973;SDS011;23796;51.458;7.000;2023-04-09T11:32:01;5.75;;;4.53;;
37973;SDS011;23796;51.458;7.000;2023-04-09T11:34:31;5.68;;;4.65;;
37973;SDS011;23796;51.458;7.000;2023-04-09T11:36:59;4.78;;;4.18;;
37973;SDS011;23796;51.458;7.000;2023-04-09T11:39:29;5.60;;;4.28;;
37973;SDS011;23796;51.458;7.000;2023-04-09T11:42:02;6.60;;;4.30;;
37973;SDS011;23796;51.458;7.000;2023-04-09T11:44:30;5.50;;;4.53;;
37973;SDS011;23796;51.458;7.000;2023-04-09T11:46:57;5.32;;;4.05;;
37973;SDS011;23796;51.458;7.000;2023-04-09T11:49:23;5.35;;;4.32;;
37973;SDS011;23796;51.458;7.000;2023-04-09T11:51:49;5.50;;;4.55;;
37973;SDS011;23796;51.458;7.000;2023-04-09T11:54:15;5.53;;;4.15;;
37973;SDS011;23796;51.458;7.000;2023-04-09T11:56:41;7.00;;;4.78;;
37973;SDS011;23796;51.458;7.000;2023-04-09T11:59:06;5.45;;;4.38;;
37973;SDS011;23796;51.458;7.000;2023-04-09T12:01:35;5.57;;;4.60;;
37973;SDS011;23796;51.458;7.000;2023-04-09T12:04:00;6.97;;;4.60;;
37973;SDS011;23796;51.458;7.000;2023-04-09T12:06:26;5.60;;;4.18;;
37973;SDS011;23796;51.458;7.000;2023-04-09T12:08:57;6.40;;;5.10;;
37973;SDS011;23796;51.458;7.000;2023-04-09T12:11:29;5.78;;;4.72;;
37973;SDS011;23796;51.458;7.000;2023-04-09T12:13:59;5.65;;;4.38;;
37973;SDS011;23796;51.458;7.000;2023-04-09T12:16:28;6.40;;;5.18;;
37973;SDS011;23796;51.458;7.000;2023-04-09T12:19:00;6.57;;;5.10;;
37973;SDS011;23796;51.458;7.000;2023-04-09T12:21:48;5.57;;;4.53;;
37973;SDS011;23796;51.458;7.000;2023-04-09T12:24:20;6.18;;;4.63;;
37973;SDS011;23796;51.458;7.000;2023-04-09T12:26:51;5.80;;;4.97;;
37973;SDS011;23796;51.458;7.000;2023-04-09T12:29:17;5.65;;;4.80;;
37973;SDS011;23796;51.458;7.000;2023-04-09T12:31:44;7.32;;;5.28;;
37973;SDS011;23796;51.458;7.000;2023-04-09T12:34:11;6.30;;;5.07;;
37973;SDS011;23796;51.458;7.000;2023-04-09T12:36:39;6.60;;;5.25;;
37973;SDS011;23796;51.458;7.000;2023-04-09T12:39:05;5.85;;;4.70;;
37973;SDS011;23796;51.458;7.000;2023-04-09T12:41:32;6.00;;;4.68;;
37973;SDS011;23796;51.458;7.000;2023-04-09T12:44:00;6.00;;;4.57;;
37973;SDS011;23796;51.458;7.000;2023-04-09T12:46:26;6.85;;;5.10;;
37973;SDS011;23796;51.458;7.000;2023-04-09T12:48:56;6.25;;;4.93;;
37973;SDS011;23796;51.458;7.000;2023-04-09T12:51:24;6.03;;;4.75;;
37973;SDS011;23796;51.458;7.000;2023-04-09T12:53:52;5.43;;;4.47;;
37973;SDS011;23796;51.458;7.000;2023-04-09T12:56:17;6.35;;;4.70;;
37973;SDS011;23796;51.458;7.000;2023-04-09T12:58:45;5.15;;;4.53;;
37973;SDS011;23796;51.458;7.000;2023-04-09T13:01:13;4.88;;;4.10;;
37973;SDS011;23796;51.458;7.000;2023-04-09T13:03:39;5.95;;;4.63;;
37973;SDS011;23796;51.458;7.000;2023-04-09T13:06:05;6.50;;;5.25;;
37973;SDS011;23796;51.458;7.000;2023-04-09T13:08:33;5.22;;;4.28;;
37973;SDS011;23796;51.458;7.000;2023-04-09T13:10:58;6.10;;;4.85;;
37973;SDS011;23796;51.458;7.000;2023-04-09T13:13:24;5.50;;;4.70;;
37973;SDS011;23796;51.458;7.000;2023-04-09T13:15:52;5.43;;;4.68;;
37973;SDS011;23796;51.458;7.000;2023-04-09T13:18:18;5.13;;;4.05;;
37973;SDS011;23796;51.458;7.000;2023-04-09T13:20:46;6.07;;;4.55;;
37973;SDS011;23796;51.458;7.000;2023-04-09T13:23:14;6.13;;;4.25;;
37973;SDS011;23796;51.458;7.000;2023-04-09T13:25:39;5.85;;;4.20;;
37973;SDS011;23796;51.458;7.000;2023-04-09T13:28:08;5.60;;;4.32;;
37973;SDS011;23796;51.458;7.000;2023-04-09T13:30:37;5.53;;;4.38;;
37973;SDS011;23796;51.458;7.000;2023-04-09T13:33:05;5.13;;;4.10;;
37973;SDS011;23796;51.458;7.000;2023-04-09T13:35:30;4.70;;;3.80;;
37973;SDS011;23796;51.458;7.000;2023-04-09T13:37:56;6.13;;;4.53;;
37973;SDS011;23796;51.458;7.000;2023-04-09T13:40:27;5.68;;;4.60;;
37973;SDS011;23796;51.458;7.000;2023-04-09T13:42:52;4.95;;;4.03;;
37973;SDS011;23796;51.458;7.000;2023-04-09T13:45:20;5.00;;;3.88;;
37973;SDS011;23796;51.458;7.000;2023-04-09T13:47:48;5.30;;;4.45;;
37973;SDS011;23796;51.458;7.000;2023-04-09T13:50:16;5.70;;;4.68;;
37973;SDS011;23796;51.458;7.000;2023-04-09T13:52:41;5.57;;;4.38;;
37973;SDS011;23796;51.458;7.000;2023-04-09T13:55:10;6.78;;;4.60;;
37973;SDS011;23796;51.458;7.000;2023-04-09T13:57:38;5.00;;;4.10;;
37973;SDS011;23796;51.458;7.000;2023-04-09T14:00:06;5.20;;;4.50;;
37973;SDS011;23796;51.458;7.000;2023-04-09T14:02:32;4.60;;;3.50;;
37973;SDS011;23796;51.458;7.000;2023-04-09T14:05:00;5.60;;;4.50;;
37973;SDS011;23796;51.458;7.000;2023-04-09T14:07:29;5.50;;;4.47;;
37973;SDS011;23796;51.458;7.000;2023-04-09T14:09:58;5.45;;;3.90;;
37973;SDS011;23796;51.458;7.000;2023-04-09T14:12:26;6.22;;;4.90;;
37973;SDS011;23796;51.458;7.000;2023-04-09T14:14:52;6.32;;;4.18;;
37973;SDS011;23796;51.458;7.000;2023-04-09T14:17:17;5.40;;;4.45;;
37973;SDS011;23796;51.458;7.000;2023-04-09T14:19:43;6.38;;;4.68;;
37973;SDS011;23796;51.458;7.000;2023-04-09T14:22:09;5.28;;;4.32;;
37973;SDS011;23796;51.458;7.000;2023-04-09T14:24:35;5.03;;;4.05;;
37973;SDS011;23796;51.458;7.000;2023-04-09T14:27:06;5.43;;;4.82;;
37973;SDS011;23796;51.458;7.000;2023-04-09T14:29:35;4.88;;;4.30;;
37973;SDS011;23796;51.458;7.000;2023-04-09T14:32:03;4.82;;;3.90;;
37973;SDS011;23796;51.458;7.000;2023-04-09T14:34:31;5.10;;;4.13;;
37973;SDS011;23796;51.458;7.000;2023-04-09T14:36:59;4.72;;;3.78;;
37973;SDS011;23796;51.458;7.000;2023-04-09T14:39:25;4.88;;;3.60;;
37973;SDS011;23796;51.458;7.000;2023-04-09T14:41:50;4.90;;;3.80;;
37973;SDS011;23796;51.458;7.000;2023-04-09T14:44:16;4.78;;;3.72;;
37973;SDS011;23796;51.458;7.000;2023-04-09T14:46:44;4.38;;;3.70;;
37973;SDS011;23796;51.458;7.000;2023-04-09T14:49:10;5.35;;;4.05;;
37973;SDS011;23796;51.458;7.000;2023-04-09T14:51:40;5.03;;;3.97;;
37973;SDS011;23796;51.458;7.000;2023-04-09T14:54:05;7.80;;;4.30;;
37973;SDS011;23796;51.458;7.000;2023-04-09T14:56:31;4.65;;;3.67;;
37973;SDS011;23796;51.458;7.000;2023-04-09T14:58:59;6.05;;;4.15;;
37973;SDS011;23796;51.458;7.000;2023-04-09T15:01:27;4.78;;;3.70;;
37973;SDS011;23796;51.458;7.000;2023-04-09T15:03:55;5.20;;;4.05;;
37973;SDS011;23796;51.458;7.000;2023-04-09T15:06:22;6.57;;;4.55;;